Bookmark and Share
Track history (hours):
 

Em Athens

Last reported at 2014-Apr-20 03:31 UTC. Time now 2014-Apr-25 05:47 UTC.
Position N 50°17' W 001°50'.

; draft 11.3 m.

Type: Ship. MMSI: 538004019.

NotesDate/timePositionNaut miles runAvg speedWind from/ knotsBaromVisibWave heightAir tempDewpointWater temp
2014-Apr-20 03:31N 50°17' W 001°50'1920.3
2014-Apr-20 02:33N 50°26' W 001°23'1818.2
2014-Apr-20 01:33N 50°36' W 000°59'10 9.7
2014-Apr-20 00:34N 50°45' W 001°06'1010.2
2014-Apr-19 23:34N 50°50' W 001°19'6 6.2
2014-Apr-19 22:33N 50°54' W 001°27'0 0.3
2014-Apr-19 21:31N 50°54' W 001°27'0 0.0
2014-Apr-19 20:31N 50°54' W 001°27'0 0.0
2014-Apr-19 19:31N 50°54' W 001°27'0 0.0
2014-Apr-19 18:31N 50°54' W 001°27'0 0.0
2014-Apr-19 17:31N 50°54' W 001°27'0 0.0
2014-Apr-19 16:31N 50°54' W 001°27'0 0.0
2014-Apr-19 15:31N 50°54' W 001°27'0 0.0
2014-Apr-19 14:31N 50°54' W 001°27'0 0.0
2014-Apr-19 13:31N 50°54' W 001°27'0 0.0
2014-Apr-19 12:31N 50°54' W 001°27'0 0.0
2014-Apr-19 11:31N 50°54' W 001°27'0 0.0
2014-Apr-19 10:31N 50°54' W 001°27'0 0.0
2014-Apr-19 09:31N 50°54' W 001°27'0 0.0
2014-Apr-19 08:31N 50°54' W 001°27'0 0.0
2014-Apr-19 07:31N 50°54' W 001°27'0 0.0
2014-Apr-19 06:31N 50°54' W 001°27'1 0.7
2014-Apr-19 05:34N 50°54' W 001°26'6 5.9
2014-Apr-19 04:34N 50°50' W 001°19'9 9.0
2014-Apr-19 03:33N 50°45' W 001°07'1110.7
2014-Apr-19 02:33N 50°37' W 000°56'2 1.6
2014-Apr-19 01:33N 50°36' W 000°55'9 9.0
2014-Apr-19 00:33N 50°28' W 000°48'48 9.1
2014-Apr-18 19:19N 49°45' W 000°16'7 8.9
2014-Apr-18 18:33N 49°39' W 000°11'9 9.1
2014-Apr-18 17:33N 49°31' W 000°05'10 9.4
2014-Apr-18 16:32N 49°28' E 000°09'0 0.0
2014-Apr-18 15:32N 49°28' E 000°09'0 0.0
2014-Apr-18 14:32N 49°28' E 000°09'0 0.0
2014-Apr-18 13:32N 49°28' E 000°09'0 0.0
2014-Apr-18 12:32N 49°28' E 000°09'0 0.0
2014-Apr-18 11:32N 49°28' E 000°09'0 0.0
2014-Apr-18 10:32N 49°28' E 000°09'0 0.0
2014-Apr-18 09:32N 49°28' E 000°09'0 0.0
2014-Apr-18 08:32N 49°28' E 000°09'0 0.0
2014-Apr-18 07:32N 49°28' E 000°09'0 0.0
2014-Apr-18 06:32N 49°28' E 000°09'0 0.0
2014-Apr-18 05:32N 49°28' E 000°09'0 0.0
2014-Apr-18 04:32N 49°28' E 000°09'0 0.0
2014-Apr-18 03:32N 49°28' E 000°09'0 0.0
2014-Apr-18 02:32N 49°28' E 000°09'0 0.0
2014-Apr-18 01:32N 49°28' E 000°09'0 0.0
2014-Apr-18 00:32N 49°28' E 000°09'0 0.0
2014-Apr-17 23:32N 49°28' E 000°09'0 0.0
2014-Apr-17 22:32N 49°28' E 000°09'0 0.0
2014-Apr-17 21:32N 49°28' E 000°09'0 0.0
2014-Apr-17 20:32N 49°28' E 000°09'0 0.0
2014-Apr-17 19:32N 49°28' E 000°09'0 0.0
2014-Apr-17 18:32N 49°28' E 000°09'0 0.0
2014-Apr-17 17:32N 49°28' E 000°09'0 0.0
2014-Apr-17 16:32N 49°28' E 000°09'4 3.9
2014-Apr-17 15:33N 49°29' E 000°04'9 9.5
2014-Apr-17 14:33N 49°36' W 000°07'1514.5
2014-Apr-17 13:30N 49°51' W 000°09'1514.8
2014-Apr-17 12:29N 50°06' W 000°07'1212.9
2014-Apr-17 11:33N 50°18' W 000°05'1211.3
2014-Apr-17 10:30N 50°29' E 000°03'1212.4
2014-Apr-17 09:33N 50°32' E 000°20'1211.8
2014-Apr-17 08:33N 50°38' E 000°37'1212.2
2014-Apr-17 07:33N 50°44' E 000°53'1312.9
2014-Apr-17 06:33N 50°52' E 001°10'1312.8
2014-Apr-17 05:33N 51°00' E 001°25'1111.0
2014-Apr-17 04:33N 51°08' E 001°37'10 9.8
2014-Apr-17 03:33N 51°15' E 001°47'9 9.1
2014-Apr-17 02:33N 51°23' E 001°54'9 9.2
2014-Apr-17 01:33N 51°31' E 002°03'3611.6
2014-Apr-16 22:27N 51°57' E 002°43'1112.4
2014-Apr-16 21:33N 52°02' E 002°59'1312.7
2014-Apr-16 20:34N 52°03' E 003°19'1212.4
2014-Apr-16 19:33N 52°03' E 003°39'1111.0
2014-Apr-16 18:34N 52°02' E 003°57'6 4.4
2014-Apr-16 17:16N 51°57' E 004°03'0 0.0
2014-Apr-16 16:28N 51°57' E 004°03'0 0.0
2014-Apr-16 15:31N 51°57' E 004°03'0 0.0
2014-Apr-16 14:31N 51°57' E 004°03'0 0.0
2014-Apr-16 13:22N 51°57' E 004°03'0 0.0
2014-Apr-16 12:25N 51°57' E 004°03'0 0.0
2014-Apr-16 11:22N 51°57' E 004°03'0 0.0
2014-Apr-16 09:25N 51°57' E 004°03'0 0.0
2014-Apr-16 08:07N 51°58' E 004°03'0 0.0
2014-Apr-16 07:31N 51°58' E 004°03'0 0.0
2014-Apr-16 06:28N 51°58' E 004°03'0 0.0
2014-Apr-16 05:22N 51°57' E 004°03'0 0.0
2014-Apr-16 04:22N 51°57' E 004°03'0 0.0
2014-Apr-16 03:22N 51°57' E 004°03'0 0.0
2014-Apr-16 02:28N 51°57' E 004°03'0 0.0
2014-Apr-16 01:28N 51°57' E 004°03'0 0.0
2014-Apr-16 00:31N 51°57' E 004°03'0 0.0
2014-Apr-15 23:28N 51°57' E 004°03'0 0.0
2014-Apr-15 22:25N 51°58' E 004°03'0 0.0
2014-Apr-15 21:31N 51°57' E 004°03'0 0.0
2014-Apr-15 20:31N 51°57' E 004°03'0 0.0
2014-Apr-15 19:22N 51°57' E 004°03'0 0.0
2014-Apr-15 18:31N 51°58' E 004°03'0 0.1
2014-Apr-15 17:33N 51°58' E 004°03'3 2.6
2014-Apr-15 16:33N 51°60' E 004°01'1110.3
2014-Apr-15 15:30N 51°59' E 003°43'9 0.5
2014-Apr-14 22:31N 51°54' E 003°31'4 0.2
2014-Apr-13 22:33N 51°56' E 003°25'1110.6
2014-Apr-13 21:33N 51°52' E 003°08'2310.6
2014-Apr-13 19:24N 51°44' E 002°34'1011.6
2014-Apr-13 18:33N 51°37' E 002°23'1010.3
2014-Apr-13 17:33N 51°29' E 002°12'1010.2
2014-Apr-13 16:33N 51°22' E 002°01'1110.4
2014-Apr-13 15:32N 51°14' E 001°50'1110.7
2014-Apr-13 14:28N 51°05' E 001°38'5810.8
2014-Apr-13 09:07N 50°25' E 000°33'  

Dump ship's entire track history

sailing weather and tide predictions

Em Athens — V7US8 — position and weather